Smithton, Missouri
Current Conditions -  °F | °C
As of 4:53 AM on Monday 20 Oct 2014 (Local Time) from KDMO Reporting Station
Broken Clouds Broken Clouds  
Wind Chill: 55°   Ceiling: 6500
Heat Index: 55°   Visibility: 10mi
Dew Point: 51°   Wind: 10mph
Humidity: 86%   Direction: 230°SW
Pressure: 30"   Gusts: NA
Location:  38.68°N, 93.09°W
Report Text: KDMO 200953Z AUTO 23009KT 10SM BKN065 13/11 A3000 RMK AO2 SLP157 T01280106
Loading
Personal Weather Stations






























Interactive Weather Map New forecast layout! Learn more

10-Day Weather Forecast

Advertisements
Track Severe Weather on mobile